createdAt,value
2022-11-10T00:00:23.924Z,101143.98
2022-11-10T00:03:14.545Z,101144.05
2022-11-10T00:06:07.204Z,101145.91
2022-11-10T00:08:58.675Z,101149.61
2022-11-10T00:11:51.342Z,101144.78
2022-11-10T00:15:00.197Z,101149.03
2022-11-10T00:17:52.269Z,101154.57
2022-11-10T00:20:42.996Z,101154.08
2022-11-10T00:23:34.510Z,101147.48
2022-11-10T00:26:26.284Z,101153.75
2022-11-10T00:29:17.560Z,101159.64
2022-11-10T00:32:09.368Z,101156.52
2022-11-10T00:35:00.297Z,101155.06
2022-11-10T00:37:52.265Z,101163.95
2022-11-10T00:40:43.130Z,101155.67
2022-11-10T00:43:34.912Z,101155.67
2022-11-10T00:46:26.659Z,101156.79
2022-11-10T00:49:17.859Z,101156.23
2022-11-10T00:52:08.579Z,101158.65
2022-11-10T00:54:59.745Z,101150.08
2022-11-10T00:57:50.558Z,101148.46
2022-11-10T01:00:41.832Z,101153.06
2022-11-10T01:03:33.343Z,101150.88
2022-11-10T01:06:25.118Z,101147.91
2022-11-10T01:09:16.774Z,101152.17
2022-11-10T01:12:08.170Z,101153.00
2022-11-10T01:14:59.343Z,101156.72
2022-11-10T01:17:52.219Z,101161.91
2022-11-10T01:20:43.028Z,101160.84
2022-11-10T01:23:34.083Z,101168.02
2022-11-10T01:26:25.342Z,101169.64
2022-11-10T01:29:17.197Z,101168.13
2022-11-10T01:32:08.356Z,101158.00
2022-11-10T01:34:59.121Z,101157.09
2022-11-10T01:37:51.878Z,101155.65
2022-11-10T01:40:42.670Z,101162.81
2022-11-10T01:43:35.069Z,101165.22
2022-11-10T01:46:26.654Z,101165.05
2022-11-10T01:49:25.242Z,101160.62
2022-11-10T01:52:17.408Z,101156.20
2022-11-10T01:55:08.832Z,101162.03
2022-11-10T01:57:59.874Z,101155.92
2022-11-10T02:00:50.613Z,101160.17
2022-11-10T02:03:52.491Z,101164.42
2022-11-10T02:06:47.465Z,101157.05
2022-11-10T02:09:38.261Z,101162.58
2022-11-10T02:12:38.870Z,101164.44
2022-11-10T02:15:30.160Z,101162.03
2022-11-10T02:18:22.006Z,101163.48
2022-11-10T02:21:13.630Z,101164.53
2022-11-10T02:24:04.841Z,101164.64
2022-11-10T02:26:58.822Z,101169.22
2022-11-10T02:29:49.633Z,101172.81
2022-11-10T02:32:40.826Z,101175.25
2022-11-10T02:35:32.267Z,101178.43
2022-11-10T02:38:22.798Z,101176.13
2022-11-10T02:41:13.485Z,101174.42
2022-11-10T02:44:05.725Z,101179.52
2022-11-10T02:46:56.860Z,101182.39
2022-11-10T02:49:47.819Z,101184.17
2022-11-10T02:52:39.180Z,101185.12
2022-11-10T02:55:30.475Z,101184.64
2022-11-10T02:58:21.084Z,101187.13
2022-11-10T03:01:11.722Z,101186.34
2022-11-10T03:04:02.196Z,101184.48
2022-11-10T03:06:52.829Z,101181.52
2022-11-10T03:09:43.882Z,101177.97
2022-11-10T03:12:34.818Z,101187.64
2022-11-10T03:15:26.942Z,101187.22
2022-11-10T03:18:18.437Z,101187.22
2022-11-10T03:21:09.246Z,101193.59
2022-11-10T03:24:00.934Z,101183.44
2022-11-10T03:26:51.883Z,101189.50
2022-11-10T03:29:44.482Z,101182.86
2022-11-10T03:32:35.837Z,101190.92
2022-11-10T03:35:26.977Z,101188.98
2022-11-10T03:38:17.829Z,101187.84
2022-11-10T03:41:24.093Z,101190.94
2022-11-10T03:44:02.345Z,101191.65
2022-11-10T03:46:53.176Z,101187.16
2022-11-10T03:49:45.144Z,101177.31
2022-11-10T03:52:36.389Z,101175.21
2022-11-10T03:55:27.110Z,101177.44
2022-11-10T03:58:17.555Z,101180.34
2022-11-10T04:01:08.575Z,101177.13
2022-11-10T04:04:00.184Z,101183.67
2022-11-10T04:07:09.444Z,101171.70
2022-11-10T04:10:00.630Z,101172.60
2022-11-10T04:13:09.333Z,101175.19
2022-11-10T04:15:59.962Z,101174.64
2022-11-10T04:18:50.906Z,101177.45
2022-11-10T04:21:41.700Z,101181.16
2022-11-10T04:24:32.741Z,101171.97
2022-11-10T04:27:23.539Z,101179.20
2022-11-10T04:30:14.896Z,101180.49
2022-11-10T04:33:05.743Z,101183.81
2022-11-10T04:35:56.679Z,101188.75
2022-11-10T04:38:49.088Z,101187.19
2022-11-10T04:41:40.056Z,101192.05
2022-11-10T04:44:30.711Z,101199.74
2022-11-10T04:47:21.369Z,101197.98
2022-11-10T04:50:12.813Z,101210.08
2022-11-10T04:53:04.225Z,101206.67
2022-11-10T04:55:56.155Z,101207.38
2022-11-10T04:58:47.855Z,101210.43
2022-11-10T05:01:38.810Z,101217.13
2022-11-10T05:04:29.735Z,101215.16
2022-11-10T05:07:20.387Z,101219.19
2022-11-10T05:10:11.796Z,101229.05
2022-11-10T05:13:04.797Z,101226.43
2022-11-10T05:15:55.786Z,101234.80
2022-11-10T05:18:46.274Z,101225.98
2022-11-10T05:21:37.077Z,101224.02
2022-11-10T05:24:28.478Z,101225.15
2022-11-10T05:27:19.270Z,101230.63
2022-11-10T05:30:12.150Z,101222.28
2022-11-10T05:33:03.203Z,101227.95
2022-11-10T05:35:54.690Z,101231.39
2022-11-10T05:38:45.928Z,101232.91
2022-11-10T05:41:37.556Z,101238.09
2022-11-10T05:44:27.995Z,101244.38
2022-11-10T05:47:18.919Z,101242.65
2022-11-10T05:50:11.366Z,101248.66
2022-11-10T05:53:02.561Z,101244.06
2022-11-10T05:55:53.522Z,101253.37
2022-11-10T05:58:44.189Z,101250.45
2022-11-10T06:01:35.521Z,101252.50
2022-11-10T06:04:26.449Z,101249.97
2022-11-10T06:07:17.340Z,101254.84
2022-11-10T06:10:09.849Z,101255.23
2022-11-10T06:13:00.915Z,101261.06
2022-11-10T06:15:53.516Z,101260.02
2022-11-10T06:18:44.400Z,101266.84
2022-11-10T06:21:35.955Z,101260.57
2022-11-10T06:24:27.158Z,101254.79
2022-11-10T06:27:17.889Z,101258.97
2022-11-10T06:30:11.062Z,101264.41
2022-11-10T06:33:02.569Z,101264.85
2022-11-10T06:35:54.655Z,101267.13
2022-11-10T06:38:45.870Z,101262.25
2022-11-10T06:41:37.027Z,101262.55
2022-11-10T06:44:27.804Z,101264.37
2022-11-10T06:47:19.588Z,101262.73
2022-11-10T06:50:11.210Z,101264.47
2022-11-10T06:53:02.986Z,101272.22
2022-11-10T06:55:53.678Z,101270.86
2022-11-10T06:58:44.043Z,101266.81
2022-11-10T07:01:34.537Z,101265.70
2022-11-10T07:04:25.861Z,101273.55
2022-11-10T07:07:16.647Z,101264.05
2022-11-10T07:10:07.864Z,101263.06
2022-11-10T07:13:01.521Z,101258.59
2022-11-10T07:15:52.636Z,101257.51
2022-11-10T07:18:44.159Z,101260.41
2022-11-10T07:21:34.787Z,101259.97
2022-11-10T07:24:26.729Z,101261.70
2022-11-10T07:27:17.490Z,101261.25
2022-11-10T07:30:09.427Z,101255.33
2022-11-10T07:33:07.044Z,101258.56
2022-11-10T07:35:59.625Z,101261.31
2022-11-10T07:38:51.433Z,101265.02
2022-11-10T07:41:42.467Z,101257.80
2022-11-10T07:44:33.225Z,101262.02
2022-11-10T07:47:25.289Z,101262.08
2022-11-10T07:50:15.845Z,101259.39
2022-11-10T07:53:12.539Z,101265.00
2022-11-10T07:56:03.815Z,101262.81
2022-11-10T07:58:54.788Z,101263.22
2022-11-10T08:01:47.071Z,101264.92
2022-11-10T08:04:37.905Z,101264.42
2022-11-10T08:07:28.834Z,101266.39
2022-11-10T08:10:19.680Z,101265.22
2022-11-10T08:13:13.344Z,101267.95
2022-11-10T08:16:03.864Z,101257.04
2022-11-10T08:18:54.332Z,101255.36
2022-11-10T08:21:46.788Z,101249.64
2022-11-10T08:24:37.541Z,101251.59
2022-11-10T08:27:28.449Z,101251.30
2022-11-10T08:30:19.173Z,101255.44
2022-11-10T08:33:13.090Z,101251.01
2022-11-10T08:36:03.962Z,101248.14
2022-11-10T08:38:54.769Z,101242.65
2022-11-10T08:41:45.982Z,101247.98
2022-11-10T08:44:36.839Z,101248.24
2022-11-10T08:47:27.341Z,101244.19
2022-11-10T08:50:18.307Z,101242.34
2022-11-10T08:53:15.603Z,101234.75
2022-11-10T08:56:06.548Z,101231.22
2022-11-10T08:58:57.057Z,101228.86
2022-11-10T09:01:48.811Z,101230.01
2022-11-10T09:04:39.600Z,101224.15
2022-11-10T09:07:31.405Z,101228.55
2022-11-10T09:10:22.520Z,101226.59
2022-11-10T09:13:15.978Z,101229.45
2022-11-10T09:16:07.701Z,101231.41
2022-11-10T09:18:58.182Z,101227.34
2022-11-10T09:21:48.419Z,101226.77
2022-11-10T09:24:38.860Z,101222.98
2022-11-10T09:27:29.711Z,101229.30
2022-11-10T09:30:20.392Z,101222.28
2022-11-10T09:33:11.763Z,101217.78
2022-11-10T09:36:03.135Z,101219.63
2022-11-10T09:38:53.546Z,101211.69
2022-11-10T09:41:45.819Z,101216.48
2022-11-10T09:44:41.979Z,101218.17
2022-11-10T09:50:39.455Z,101217.50
2022-11-10T09:53:35.251Z,101209.08
2022-11-10T09:56:30.784Z,101222.13
2022-11-10T09:59:33.852Z,101228.28
2022-11-10T10:02:52.731Z,101230.66
2022-11-10T10:06:12.420Z,101223.86
2022-11-10T10:09:45.751Z,101228.87
2022-11-10T10:13:16.783Z,101228.14
2022-11-10T10:16:39.244Z,101228.41
2022-11-10T10:19:52.451Z,101230.11
2022-11-10T10:23:04.991Z,101229.10
2022-11-10T10:25:56.063Z,101225.50
2022-11-10T10:28:48.627Z,101220.34
2022-11-10T10:31:46.971Z,101220.88
2022-11-10T10:34:38.052Z,101220.77
2022-11-10T10:37:57.137Z,101220.04
2022-11-10T10:40:51.322Z,101214.70
2022-11-10T10:43:48.733Z,101212.45
2022-11-10T10:46:51.017Z,101209.27
2022-11-10T10:49:41.585Z,101213.64
2022-11-10T10:52:32.621Z,101213.63
2022-11-10T10:55:27.056Z,101211.25
2022-11-10T10:58:31.833Z,101215.24
2022-11-10T11:01:32.656Z,101210.43
2022-11-10T11:04:38.378Z,101210.84
2022-11-10T11:07:29.418Z,101212.57
2022-11-10T11:10:30.525Z,101213.81
2022-11-10T11:13:30.395Z,101217.67
2022-11-10T11:16:22.432Z,101212.39
2022-11-10T11:19:15.038Z,101217.25
2022-11-10T11:22:46.576Z,101220.11
2022-11-10T11:25:45.261Z,101226.25
2022-11-10T11:28:52.822Z,101222.34
2022-11-10T11:31:57.980Z,101217.02
2022-11-10T11:35:18.374Z,101221.70
2022-11-10T11:38:34.691Z,101219.75
2022-11-10T11:41:42.130Z,101218.86
2022-11-10T11:45:08.339Z,101221.41
2022-11-10T11:48:09.518Z,101215.77
2022-11-10T11:51:24.208Z,101218.33
2022-11-10T11:54:46.263Z,101223.90
2022-11-10T11:58:16.478Z,101217.38
2022-11-10T12:01:34.233Z,101221.00
2022-11-10T12:04:48.043Z,101227.38
2022-11-10T12:08:16.307Z,101225.27
2022-11-10T12:11:23.607Z,101228.16
2022-11-10T12:14:48.844Z,101238.08
2022-11-10T12:18:02.252Z,101230.83
2022-11-10T12:21:26.163Z,101235.57
2022-11-10T12:24:51.377Z,101241.20
2022-11-10T12:27:46.802Z,101235.50
2022-11-10T12:30:38.869Z,101235.62
2022-11-10T12:33:48.994Z,101239.53
2022-11-10T12:36:40.223Z,101232.25
2022-11-10T12:39:46.621Z,101235.03
2022-11-10T12:42:39.429Z,101237.89
2022-11-10T12:45:40.020Z,101240.37
2022-11-10T12:48:53.545Z,101240.55
2022-11-10T12:52:27.221Z,101236.92
2022-11-10T12:55:18.063Z,101242.17
2022-11-10T12:58:10.658Z,101242.95
2022-11-10T13:01:08.592Z,101241.53
2022-11-10T13:04:01.438Z,101243.61
2022-11-10T13:06:57.232Z,101246.22
2022-11-10T13:09:48.528Z,101252.36
2022-11-10T13:12:40.032Z,101257.95
2022-11-10T13:15:47.182Z,101255.34
2022-11-10T13:18:43.096Z,101257.33
2022-11-10T13:22:04.539Z,101256.28
2022-11-10T13:25:17.182Z,101262.30
2022-11-10T13:28:11.280Z,101260.07
2022-11-10T13:31:02.644Z,101263.73
2022-11-10T13:34:12.718Z,101256.98
2022-11-10T13:37:05.781Z,101252.30
2022-11-10T13:40:16.349Z,101254.01
2022-11-10T13:43:27.546Z,101257.92
2022-11-10T13:46:17.987Z,101256.20
2022-11-10T13:49:28.154Z,101267.81
2022-11-10T13:52:32.648Z,101253.11
2022-11-10T13:55:43.455Z,101261.34
2022-11-10T13:58:35.673Z,101260.56
2022-11-10T14:01:30.771Z,101259.95
2022-11-10T14:04:45.688Z,101265.53
2022-11-10T14:07:40.833Z,101262.92
2022-11-10T14:10:52.385Z,101264.11
2022-11-10T14:13:51.120Z,101262.31
2022-11-10T14:16:45.226Z,101260.36
2022-11-10T14:19:45.202Z,101267.02
2022-11-10T14:22:43.488Z,101266.91
2022-11-10T14:25:40.968Z,101274.84
2022-11-10T14:28:38.509Z,101268.45
2022-11-10T14:31:29.649Z,101270.00
2022-11-10T14:34:22.902Z,101267.15
2022-11-10T14:37:18.508Z,101267.15
2022-11-10T14:40:13.189Z,101275.77
2022-11-10T14:43:03.829Z,101280.45
2022-11-10T14:45:55.141Z,101277.85
2022-11-10T14:48:46.043Z,101280.33
2022-11-10T14:51:37.291Z,101277.32
2022-11-10T14:54:29.612Z,101280.20
2022-11-10T14:57:21.138Z,101285.42
2022-11-10T15:00:15.647Z,101276.05
2022-11-10T15:03:08.950Z,101276.86
2022-11-10T15:06:00.100Z,101276.33
2022-11-10T15:08:50.868Z,101275.55
2022-11-10T15:11:52.468Z,101277.76
2022-11-10T15:14:46.372Z,101276.86
2022-11-10T15:17:50.738Z,101277.63
2022-11-10T15:20:43.182Z,101288.05
2022-11-10T15:23:39.726Z,101288.17
2022-11-10T15:26:34.748Z,101281.39
2022-11-10T15:29:25.841Z,101289.20
2022-11-10T15:32:23.171Z,101282.81
2022-11-10T15:35:28.856Z,101289.33
2022-11-10T15:38:27.459Z,101289.73
2022-11-10T15:41:27.315Z,101293.11
2022-11-10T15:44:25.539Z,101285.30
2022-11-10T15:47:19.562Z,101285.17
2022-11-10T15:50:13.219Z,101290.38
2022-11-10T15:53:10.753Z,101284.55
2022-11-10T15:56:01.996Z,101285.32
2022-11-10T15:59:02.175Z,101291.45
2022-11-10T16:01:52.072Z,101292.76
2022-11-10T16:04:43.489Z,101287.15
2022-11-10T16:07:34.699Z,101296.66
2022-11-10T16:10:27.528Z,101298.25
2022-11-10T16:13:28.748Z,101294.98
2022-11-10T16:16:22.462Z,101291.08
2022-11-10T16:19:14.013Z,101294.09
2022-11-10T16:22:05.010Z,101298.13
2022-11-10T16:24:55.771Z,101303.97
2022-11-10T16:27:46.592Z,101305.28
2022-11-10T16:30:38.047Z,101302.95
2022-11-10T16:33:29.545Z,101298.11
2022-11-10T16:36:32.421Z,101299.29
2022-11-10T16:39:24.619Z,101297.98
2022-11-10T16:42:15.732Z,101299.81
2022-11-10T16:45:09.323Z,101300.59
2022-11-10T16:48:00.930Z,101299.56
2022-11-10T16:50:55.135Z,101298.94
2022-11-10T16:53:47.295Z,101302.32
2022-11-10T16:56:38.388Z,101299.59
2022-11-10T16:59:29.664Z,101301.66
2022-11-10T17:02:24.947Z,101298.44
2022-11-10T17:05:16.893Z,101305.99
2022-11-10T17:08:10.450Z,101304.94
2022-11-10T17:11:01.975Z,101294.41
2022-11-10T17:13:53.052Z,101302.09
2022-11-10T17:16:46.459Z,101301.59
2022-11-10T17:19:37.404Z,101294.16
2022-11-10T17:22:29.536Z,101292.23
2022-11-10T17:25:30.420Z,101290.00
2022-11-10T17:28:21.656Z,101292.34
2022-11-10T17:31:14.138Z,101292.34
2022-11-10T17:34:05.619Z,101295.61
2022-11-10T17:36:56.295Z,101290.00
2022-11-10T17:39:47.193Z,101290.81
2022-11-10T17:42:39.421Z,101286.24
2022-11-10T17:45:33.634Z,101290.02
2022-11-10T17:48:24.626Z,101289.36
2022-11-10T17:51:20.875Z,101286.50
2022-11-10T17:54:14.865Z,101283.28
2022-11-10T17:57:07.002Z,101287.67
2022-11-10T17:59:58.309Z,101289.91
2022-11-10T18:02:55.017Z,101284.03
2022-11-10T18:05:42.820Z,101282.98
2022-11-10T18:08:34.167Z,101283.26
2022-11-10T18:11:25.030Z,101278.45
2022-11-10T18:14:16.193Z,101286.62
2022-11-10T18:17:07.738Z,101283.53
2022-11-10T18:19:59.088Z,101284.03
2022-11-10T18:22:50.189Z,101288.99
2022-11-10T18:25:42.947Z,101288.84
2022-11-10T18:28:35.217Z,101290.02
2022-11-10T18:31:26.636Z,101290.79
2022-11-10T18:34:18.206Z,101283.52
2022-11-10T18:37:09.106Z,101288.72
2022-11-10T18:39:59.702Z,101284.81
2022-11-10T18:42:50.916Z,101284.67
2022-11-10T18:45:41.807Z,101288.70
2022-11-10T18:48:37.113Z,101286.50
2022-11-10T18:51:25.313Z,101282.19
2022-11-10T18:54:16.497Z,101284.30
2022-11-10T18:57:07.531Z,101290.68
2022-11-10T18:59:58.281Z,101286.65
2022-11-10T19:02:49.738Z,101288.72
2022-11-10T19:05:41.104Z,101291.72
2022-11-10T19:08:31.888Z,101291.33
2022-11-10T19:11:23.140Z,101287.69
2022-11-10T19:14:14.075Z,101285.45
2022-11-10T19:17:05.778Z,101285.59
2022-11-10T19:19:57.630Z,101292.62
2022-11-10T19:22:48.715Z,101294.20
2022-11-10T19:25:39.789Z,101297.04
2022-11-10T19:28:31.122Z,101291.70
2022-11-10T19:31:23.167Z,101297.05
2022-11-10T19:34:15.788Z,101297.05
2022-11-10T19:37:07.539Z,101299.79
2022-11-10T19:39:58.268Z,101302.53
2022-11-10T19:42:49.187Z,101305.27
2022-11-10T19:45:41.474Z,101298.09
2022-11-10T19:48:34.309Z,101293.69
2022-11-10T19:51:26.376Z,101291.98
2022-11-10T19:54:17.312Z,101290.28
2022-11-10T19:57:08.112Z,101286.91
2022-11-10T19:59:59.670Z,101285.88
2022-11-10T20:02:51.112Z,101292.66
2022-11-10T20:05:43.751Z,101284.05
2022-11-10T20:08:35.465Z,101290.15
2022-11-10T20:11:28.138Z,101288.22
2022-11-10T20:14:19.285Z,101291.23
2022-11-10T20:17:10.609Z,101284.59
2022-11-10T20:20:01.332Z,101285.09
2022-11-10T20:22:52.936Z,101291.59
2022-11-10T20:25:44.612Z,101292.13
2022-11-10T20:28:37.699Z,101287.33
2022-11-10T20:31:29.676Z,101287.56
2022-11-10T20:34:20.654Z,101289.67
2022-11-10T20:37:11.663Z,101286.13
2022-11-10T20:40:07.385Z,101288.73
2022-11-10T20:42:57.076Z,101284.34
2022-11-10T20:45:49.312Z,101284.34
2022-11-10T20:48:40.150Z,101280.30
2022-11-10T20:51:31.061Z,101285.64
2022-11-10T20:54:21.976Z,101279.91
2022-11-10T20:57:13.421Z,101283.53
2022-11-10T21:00:04.811Z,101281.06
2022-11-10T21:02:56.344Z,101285.49
2022-11-10T21:05:47.614Z,101280.03
2022-11-10T21:08:40.004Z,101282.10
2022-11-10T21:11:47.499Z,101286.41
2022-11-10T21:14:38.167Z,101290.84
2022-11-10T21:17:29.170Z,101284.83
2022-11-10T21:20:20.240Z,101290.57
2022-11-10T21:23:11.114Z,101289.55
2022-11-10T21:26:03.356Z,101292.78
2022-11-10T21:28:53.935Z,101295.78
2022-11-10T21:31:45.597Z,101294.22
2022-11-10T21:34:36.551Z,101292.38
2022-11-10T21:37:28.297Z,101296.69
2022-11-10T21:40:19.412Z,101299.17
2022-11-10T21:43:10.740Z,101296.44
2022-11-10T21:46:02.174Z,101304.25
2022-11-10T21:48:53.713Z,101299.67
2022-11-10T21:51:47.916Z,101298.52
2022-11-10T21:54:38.899Z,101299.17
2022-11-10T21:57:30.316Z,101296.57
2022-11-10T22:00:21.441Z,101291.61
2022-11-10T22:03:12.327Z,101287.34
2022-11-10T22:06:14.697Z,101293.59
2022-11-10T22:09:05.672Z,101294.63
2022-11-10T22:12:13.946Z,101300.88
2022-11-10T22:15:24.276Z,101302.03
2022-11-10T22:18:35.888Z,101304.35
2022-11-10T22:21:26.952Z,101301.37
2022-11-10T22:24:23.698Z,101299.43
2022-11-10T22:27:14.580Z,101294.73
2022-11-10T22:30:06.267Z,101295.89
2022-11-10T22:32:57.168Z,101298.37
2022-11-10T22:35:48.481Z,101295.00
2022-11-10T22:38:42.878Z,101306.06
2022-11-10T22:41:51.815Z,101302.66
2022-11-10T22:44:43.037Z,101302.40
2022-11-10T22:47:35.739Z,101299.80
2022-11-10T22:50:26.287Z,101306.56
2022-11-10T22:53:17.327Z,101304.09
2022-11-10T22:56:09.289Z,101309.19
2022-11-10T22:59:01.478Z,101299.27
2022-11-10T23:01:53.635Z,101304.61
2022-11-10T23:04:45.098Z,101301.87
2022-11-10T23:07:36.663Z,101300.58
2022-11-10T23:10:27.329Z,101306.30
2022-11-10T23:13:18.439Z,101307.32
2022-11-10T23:16:12.453Z,101308.13
2022-11-10T23:19:04.532Z,101302.12
2022-11-10T23:21:55.817Z,101299.00
2022-11-10T23:24:46.759Z,101302.01
2022-11-10T23:27:38.586Z,101303.44
2022-11-10T23:30:30.942Z,101298.23
2022-11-10T23:33:22.807Z,101293.92
2022-11-10T23:36:16.391Z,101295.76
2022-11-10T23:39:06.758Z,101293.16
2022-11-10T23:41:57.510Z,101288.19
2022-11-10T23:44:48.804Z,101285.20
2022-11-10T23:47:40.058Z,101283.28
2022-11-10T23:50:31.330Z,101289.25
2022-11-10T23:53:22.977Z,101281.97
2022-11-10T23:56:15.343Z,101282.74
2022-11-10T23:59:07.370Z,101282.13
